Sunday, February 25, 2018, 3:37 AM GMT
Back to Local

CWWB, Burlington Piers

Location: , , Canada Lat: 43.3
Local Time: 3:37 AM GMT ( 3:37 GMT) Lon: -79.8
Time Zone: GMT Elev: 252 ft

Show me the last for .
Show Coded

Time T Td Feel RH Dir Speed Gust Alt SLP Vis Weather Sky Remarks
2018-02-25 03:00 36 33 - 87 - - - - 30.09 0 None
2018-02-25 02:00 36 31 - 80 - - - - 30.13 0 None
2018-02-25 01:00 36 29 - 77 - - - - 30.16 0 None
2018-02-25 00:00 36 29 - 75 - - - - 30.20 0 None
2018-02-24 23:00 36 29 - 75 - - - - 30.18 0 None
2018-02-24 22:00 36 28 - 73 - - - - 30.17 0 None
2018-02-24 21:00 36 29 - 77 - - - - 30.19 0 None
2018-02-24 20:00 36 29 - 77 - - - - 30.21 0 None
2018-02-24 19:00 36 28 - 73 - - - - 30.22 0 None
2018-02-24 18:00 36 28 - 73 - - - - 30.24 0 None
2018-02-24 17:00 36 29 - 74 - - - - 30.25 0 None
2018-02-24 16:00 36 30 - 79 - - - - 30.26 0 None
2018-02-24 15:00 38 28 - 65 - - - - 30.27 0 None
2018-02-24 14:00 38 31 - 77 - - - - 30.27 0 None
2018-02-24 13:00 38 32 - 78 - - - - 30.24 0 None
2018-02-24 12:00 38 31 - 77 - - - - 30.24 0 None
2018-02-24 11:00 39 31 - 72 - - - - 30.25 0 None
2018-02-24 10:00 39 30 - 70 - - - - 30.21 0 None
2018-02-24 09:00 40 31 - 69 - - - - 30.22 0 None
2018-02-24 08:00 41 31 - 67 - - - - 30.21 0 None
2018-02-24 07:00 42 34 - 73 - - - - 30.21 0 None
2018-02-24 06:00 42 35 - 75 - - - - 30.18 0 None
2018-02-24 05:00 44 39 - 81 - - - - 30.16 0 None
2018-02-24 04:00 44 41 - 90 - - - - 30.14 0 None

Support USWX by starting your Amazon purchase here.